createdAt,value
2022-12-06T00:03:51.188Z,15.07
2022-12-06T00:08:54.108Z,18.55
2022-12-06T00:14:00.493Z,15.13
2022-12-06T00:19:03.317Z,16.70
2022-12-06T00:24:29.089Z,17.85
2022-12-06T00:29:35.921Z,23.40
2022-12-06T00:34:42.851Z,15.80
2022-12-06T00:39:47.593Z,18.88
2022-12-06T00:44:52.819Z,19.77
2022-12-06T00:49:54.606Z,19.10
2022-12-06T00:54:56.220Z,18.80
2022-12-06T01:00:03.313Z,25.25
2022-12-06T01:05:09.146Z,24.33
2022-12-06T01:10:18.476Z,20.65
2022-12-06T01:15:24.729Z,19.05
2022-12-06T01:20:26.264Z,18.58
2022-12-06T01:25:30.612Z,19.73
2022-12-06T01:30:45.764Z,19.50
2022-12-06T01:35:50.831Z,18.25
2022-12-06T01:40:54.722Z,16.80
2022-12-06T01:45:59.408Z,17.65
2022-12-06T01:51:02.205Z,16.55
2022-12-06T01:56:06.060Z,15.15
2022-12-06T02:01:09.596Z,15.48
2022-12-06T02:06:13.812Z,15.23
2022-12-06T02:11:15.402Z,15.70
2022-12-06T02:16:59.584Z,14.50
2022-12-06T02:22:40.359Z,14.07
2022-12-06T02:28:01.336Z,13.73
2022-12-06T02:33:08.323Z,16.58
2022-12-06T02:38:46.756Z,15.48
2022-12-06T02:43:56.969Z,14.05
2022-12-06T02:49:00.428Z,12.52
2022-12-06T02:54:14.902Z,13.32
2022-12-06T02:59:16.630Z,13.18
2022-12-06T03:05:10.667Z,12.00
2022-12-06T03:10:37.761Z,12.90
2022-12-06T03:15:47.329Z,12.55
2022-12-06T03:20:56.504Z,14.57
2022-12-06T03:26:12.635Z,14.32
2022-12-06T03:31:16.778Z,11.40
2022-12-06T03:36:22.500Z,12.43
2022-12-06T03:41:28.538Z,12.40
2022-12-06T03:46:38.128Z,14.02
2022-12-06T03:51:50.062Z,12.43
2022-12-06T03:56:54.358Z,11.70
2022-12-06T04:02:07.684Z,13.50
2022-12-06T04:07:12.585Z,13.63
2022-12-06T04:12:40.952Z,12.00
2022-12-06T04:18:05.183Z,11.90
2022-12-06T04:23:10.992Z,15.43
2022-12-06T04:28:39.505Z,10.32
2022-12-06T04:34:01.284Z,11.38
2022-12-06T04:39:02.830Z,11.38
2022-12-06T04:44:06.093Z,11.32
2022-12-06T04:49:12.716Z,12.43
2022-12-06T04:54:23.940Z,12.25
2022-12-06T04:59:32.856Z,11.35
2022-12-06T05:04:36.686Z,12.27
2022-12-06T05:09:41.512Z,12.25
2022-12-06T05:14:43.087Z,11.60
2022-12-06T05:19:44.636Z,11.85
2022-12-06T05:24:48.442Z,11.38
2022-12-06T05:29:52.381Z,11.70
2022-12-06T05:34:56.042Z,10.95
2022-12-06T05:40:01.585Z,15.25
2022-12-06T05:45:14.835Z,11.73
2022-12-06T05:50:18.697Z,10.88
2022-12-06T05:55:22.497Z,12.27
2022-12-06T06:00:24.261Z,12.85
2022-12-06T06:05:52.432Z,11.23
2022-12-06T06:10:58.110Z,13.07
2022-12-06T06:16:02.168Z,11.15
2022-12-06T06:21:04.472Z,11.65
2022-12-06T06:26:10.100Z,15.55
2022-12-06T06:31:13.953Z,12.75
2022-12-06T06:36:26.071Z,13.82
2022-12-06T06:41:27.664Z,11.98
2022-12-06T06:46:31.987Z,14.40
2022-12-06T06:51:34.183Z,14.45
2022-12-06T06:56:40.561Z,12.25
2022-12-06T07:01:51.058Z,13.60
2022-12-06T07:07:00.541Z,12.90
2022-12-06T07:12:08.120Z,14.02
2022-12-06T07:17:12.226Z,14.50
2022-12-06T07:22:14.953Z,14.60
2022-12-06T07:27:21.410Z,12.77
2022-12-06T07:32:27.637Z,14.40
2022-12-06T07:37:29.281Z,14.63
2022-12-06T07:42:49.552Z,13.75
2022-12-06T07:47:51.517Z,14.38
2022-12-06T07:52:58.351Z,13.68
2022-12-06T07:58:08.319Z,12.43
2022-12-06T08:03:15.259Z,12.77
2022-12-06T08:08:22.575Z,13.38
2022-12-06T08:13:38.314Z,10.43
2022-12-06T08:29:04.765Z,16.50
2022-12-06T08:34:08.731Z,16.45
2022-12-06T08:39:13.090Z,15.95
2022-12-06T08:44:15.816Z,15.57
2022-12-06T08:49:17.730Z,18.23
2022-12-06T08:54:26.843Z,15.88
2022-12-06T08:59:30.896Z,16.30
2022-12-06T09:04:33.076Z,15.93
2022-12-06T09:09:34.595Z,17.48
2022-12-06T09:14:40.332Z,19.98
2022-12-06T09:19:45.512Z,18.13
2022-12-06T09:24:49.311Z,18.80
2022-12-06T09:29:51.076Z,18.40
2022-12-06T09:34:55.041Z,19.17
2022-12-06T09:40:11.731Z,16.35
2022-12-06T09:45:46.103Z,17.50
2022-12-06T09:51:17.497Z,18.35
2022-12-06T09:56:37.509Z,18.38
2022-12-06T10:02:01.093Z,18.88
2022-12-06T10:07:19.794Z,18.90
2022-12-06T10:12:33.313Z,37.15
2022-12-06T10:17:37.297Z,28.83
2022-12-06T10:23:00.310Z,29.35
2022-12-06T10:28:25.423Z,42.55
2022-12-06T10:33:43.226Z,26.42
2022-12-06T10:38:50.629Z,25.05
2022-12-06T10:44:16.026Z,25.25
2022-12-06T10:49:27.696Z,19.23
2022-12-06T10:54:58.320Z,17.70
2022-12-06T11:00:11.824Z,18.95
2022-12-06T11:05:24.142Z,17.83
2022-12-06T11:10:30.839Z,16.27
2022-12-06T11:16:05.503Z,18.80
2022-12-06T11:21:33.378Z,13.90
2022-12-06T11:26:46.471Z,16.63
2022-12-06T11:32:07.716Z,16.00
2022-12-06T11:37:20.283Z,16.02
2022-12-06T11:42:26.705Z,13.98
2022-12-06T11:47:29.765Z,12.77
2022-12-06T11:52:38.737Z,11.95
2022-12-06T11:58:03.594Z,12.48
2022-12-06T12:03:29.549Z,11.95
2022-12-06T12:08:33.459Z,12.70
2022-12-06T12:13:45.281Z,12.52
2022-12-06T12:18:54.130Z,10.82
2022-12-06T12:23:59.488Z,13.98
2022-12-06T12:29:20.829Z,37.33
2022-12-06T12:34:48.019Z,12.63
2022-12-06T12:39:53.833Z,12.45
2022-12-06T12:45:03.584Z,11.00
2022-12-06T12:50:25.001Z,11.95
2022-12-06T12:55:33.870Z,12.30
2022-12-06T13:00:48.239Z,12.52
2022-12-06T13:05:53.005Z,13.13
2022-12-06T13:11:01.956Z,10.88
2022-12-06T13:16:12.649Z,11.50
2022-12-06T13:21:31.648Z,10.73
2022-12-06T13:26:44.375Z,10.90
2022-12-06T13:31:50.668Z,9.95
2022-12-06T13:36:57.475Z,12.45
2022-12-06T13:42:37.681Z,12.27
2022-12-06T13:52:43.577Z,11.00
2022-12-06T13:57:53.588Z,14.57
2022-12-06T14:03:13.586Z,14.40
2022-12-06T14:08:17.191Z,12.05
2022-12-06T14:13:23.394Z,13.23
2022-12-06T14:18:31.704Z,10.15
2022-12-06T14:23:47.490Z,11.95
2022-12-06T14:33:56.275Z,8.15
2022-12-06T14:39:20.357Z,9.02
2022-12-06T14:44:49.647Z,8.32
2022-12-06T14:50:14.909Z,9.32
2022-12-06T14:55:22.004Z,7.95
2022-12-06T15:00:52.477Z,8.02
2022-12-06T15:06:17.989Z,8.15
2022-12-06T15:11:38.342Z,8.23
2022-12-06T15:16:42.056Z,7.22
2022-12-06T15:21:51.994Z,5.72
2022-12-06T15:27:01.276Z,5.22
2022-12-06T15:32:09.199Z,4.55
2022-12-06T15:42:43.431Z,4.47
2022-12-06T15:47:49.594Z,4.57
2022-12-06T15:52:52.263Z,4.40
2022-12-06T15:57:58.943Z,3.58
2022-12-06T16:03:04.070Z,4.15
2022-12-06T16:08:14.911Z,3.20
2022-12-06T16:13:25.405Z,2.20
2022-12-06T16:18:29.494Z,2.50
2022-12-06T16:24:15.057Z,2.40
2022-12-06T16:29:32.697Z,2.95
2022-12-06T16:34:44.566Z,2.78
2022-12-06T16:39:46.165Z,3.30
2022-12-06T16:44:52.297Z,3.40
2022-12-06T16:49:53.926Z,4.40
2022-12-06T16:54:57.880Z,4.07
2022-12-06T17:00:12.649Z,4.80
2022-12-06T17:05:24.540Z,4.68
2022-12-06T17:10:30.973Z,4.55
2022-12-06T17:15:34.815Z,4.82
2022-12-06T17:20:43.751Z,5.60
2022-12-06T17:25:56.136Z,5.35
2022-12-06T17:31:12.407Z,6.53
2022-12-06T17:36:24.945Z,6.25
2022-12-06T17:41:51.819Z,7.47
2022-12-06T17:46:56.048Z,7.32
2022-12-06T17:51:57.616Z,8.38
2022-12-06T17:57:01.572Z,8.38
2022-12-06T18:02:20.088Z,8.70
2022-12-06T18:07:23.449Z,10.18
2022-12-06T18:12:36.007Z,11.32
2022-12-06T18:17:38.307Z,12.10
2022-12-06T18:22:42.142Z,10.13
2022-12-06T18:27:48.723Z,11.90
2022-12-06T18:32:50.298Z,9.35
2022-12-06T18:37:54.152Z,10.68
2022-12-06T18:43:00.767Z,10.90
2022-12-06T18:48:12.634Z,8.40
2022-12-06T18:53:15.633Z,9.95
2022-12-06T18:58:22.504Z,8.60
2022-12-06T19:03:29.313Z,10.25
2022-12-06T19:08:40.141Z,9.23
2022-12-06T19:13:55.163Z,8.38
2022-12-06T19:19:03.976Z,8.68
2022-12-06T19:24:08.903Z,8.48
2022-12-06T19:29:12.874Z,8.30
2022-12-06T19:34:25.744Z,8.45
2022-12-06T19:39:31.438Z,8.98
2022-12-06T19:44:35.753Z,7.93
2022-12-06T19:49:42.786Z,7.88
2022-12-06T19:54:49.640Z,7.40
2022-12-06T20:00:09.257Z,7.85
2022-12-06T20:05:19.695Z,7.32
2022-12-06T20:10:31.754Z,7.85
2022-12-06T20:15:36.373Z,7.45
2022-12-06T20:20:46.671Z,7.25
2022-12-06T20:25:54.194Z,8.50
2022-12-06T20:30:57.080Z,8.25
2022-12-06T20:36:00.002Z,8.73
2022-12-06T20:41:11.442Z,9.48
2022-12-06T20:46:18.071Z,10.32
2022-12-06T20:51:36.509Z,9.35
2022-12-06T20:56:49.437Z,10.75
2022-12-06T21:01:51.202Z,9.00
2022-12-06T21:06:54.871Z,8.90
2022-12-06T21:11:58.561Z,9.30
2022-12-06T21:17:00.137Z,8.57
2022-12-06T21:22:09.197Z,7.72
2022-12-06T21:27:10.786Z,8.20
2022-12-06T21:32:14.512Z,9.23
2022-12-06T21:37:35.041Z,9.02
2022-12-06T21:42:56.295Z,9.57
2022-12-06T21:48:00.926Z,10.02
2022-12-06T21:53:12.127Z,10.55
2022-12-06T21:58:19.633Z,9.57
2022-12-06T22:03:26.117Z,10.23
2022-12-06T22:08:34.377Z,11.48
2022-12-06T22:13:42.463Z,11.07
2022-12-06T22:18:57.751Z,9.10
2022-12-06T22:24:02.870Z,9.60
2022-12-06T22:29:18.823Z,10.05
2022-12-06T22:34:20.460Z,8.93
2022-12-06T22:39:23.111Z,9.30
2022-12-06T22:44:27.192Z,9.05
2022-12-06T22:49:40.211Z,8.25
2022-12-06T22:54:51.917Z,8.57
2022-12-06T23:00:00.257Z,9.98
2022-12-06T23:05:02.349Z,8.07
2022-12-06T23:10:11.057Z,8.55
2022-12-06T23:15:23.529Z,8.90
2022-12-06T23:20:34.746Z,8.38
2022-12-06T23:25:39.710Z,8.43
2022-12-06T23:30:47.591Z,7.27
2022-12-06T23:36:01.590Z,7.88
2022-12-06T23:41:11.596Z,7.25
2022-12-06T23:46:22.736Z,7.07
2022-12-06T23:51:37.685Z,6.60
2022-12-06T23:56:54.955Z,6.15
